createdAt,value
2023-01-01T00:00:34.381Z,99869.44
2023-01-01T00:05:38.400Z,99868.47
2023-01-01T00:10:39.949Z,99870.09
2023-01-01T00:15:41.567Z,99869.56
2023-01-01T00:20:43.077Z,99859.69
2023-01-01T00:25:44.672Z,99866.88
2023-01-01T00:30:46.227Z,99860.56
2023-01-01T00:35:47.831Z,99863.13
2023-01-01T00:40:49.357Z,99873.78
2023-01-01T00:45:53.981Z,99885.16
2023-01-01T00:50:55.560Z,99875.84
2023-01-01T00:55:57.339Z,99878.50
2023-01-01T01:00:58.982Z,99875.75
2023-01-01T01:06:03.564Z,99888.81
2023-01-01T01:11:09.932Z,99894.03
2023-01-01T01:16:13.120Z,99905.91
2023-01-01T01:21:16.324Z,99917.03
2023-01-01T01:26:19.402Z,99921.63
2023-01-01T01:31:21.964Z,99927.72
2023-01-01T01:36:24.524Z,99926.13
2023-01-01T01:41:28.644Z,99937.13
2023-01-01T01:46:30.868Z,99935.88
2023-01-01T01:51:35.037Z,99942.69
2023-01-01T01:56:46.042Z,99947.00
2023-01-01T02:01:47.758Z,99941.50
2023-01-01T02:06:50.171Z,99935.53
2023-01-01T02:11:51.813Z,99938.91
2023-01-01T02:16:56.865Z,99939.19
2023-01-01T02:22:21.533Z,99938.34
2023-01-01T02:27:23.137Z,99932.28
2023-01-01T02:32:27.669Z,99935.94
2023-01-01T02:37:29.750Z,99930.72
2023-01-01T02:42:31.411Z,99935.81
2023-01-01T02:47:32.975Z,99933.84
2023-01-01T02:52:40.691Z,99936.31
2023-01-01T02:57:46.114Z,99929.00
2023-01-01T03:03:06.893Z,99935.00
2023-01-01T03:08:14.492Z,99933.53
2023-01-01T03:13:19.142Z,99944.00
2023-01-01T03:18:23.472Z,99931.84
2023-01-01T03:23:27.828Z,99925.81
2023-01-01T03:28:32.575Z,99937.88
2023-01-01T03:33:40.364Z,99938.28
2023-01-01T03:38:41.824Z,99931.72
2023-01-01T03:44:02.231Z,99941.00
2023-01-01T03:49:06.103Z,99933.00
2023-01-01T03:54:14.113Z,99938.03
2023-01-01T03:59:18.739Z,99935.81
2023-01-01T04:04:20.457Z,99939.34
2023-01-01T04:09:25.536Z,99940.66
2023-01-01T04:14:47.279Z,99933.34
2023-01-01T04:19:54.712Z,99939.88
2023-01-01T04:24:56.716Z,99942.47
2023-01-01T04:29:58.416Z,99947.34
2023-01-01T04:35:00.477Z,99952.72
2023-01-01T04:40:02.532Z,99959.09
2023-01-01T04:45:04.200Z,99961.59
2023-01-01T04:50:06.047Z,99961.19
2023-01-01T04:55:07.771Z,99962.69
2023-01-01T05:00:10.461Z,99963.31
2023-01-01T05:05:11.967Z,99966.03
2023-01-01T05:10:13.623Z,99963.81
2023-01-01T05:15:16.684Z,99972.25
2023-01-01T05:20:18.249Z,99968.31
2023-01-01T05:25:19.852Z,99975.31
2023-01-01T05:30:21.480Z,99971.09
2023-01-01T05:35:26.359Z,99971.09
2023-01-01T05:40:28.595Z,99972.25
2023-01-01T05:45:30.200Z,99979.69
2023-01-01T05:50:31.785Z,99979.94
2023-01-01T05:55:33.312Z,99975.06
2023-01-01T06:00:34.873Z,99978.41
2023-01-01T06:05:36.401Z,99984.25
2023-01-01T06:10:38.025Z,99982.47
2023-01-01T06:15:39.626Z,99985.66
2023-01-01T06:20:41.134Z,99984.25
2023-01-01T06:25:42.921Z,99995.84
2023-01-01T06:30:44.515Z,99995.84
2023-01-01T06:35:46.119Z,99992.34
2023-01-01T06:41:04.667Z,99988.72
2023-01-01T06:46:06.842Z,99995.47
2023-01-01T06:51:09.898Z,100008.47
2023-01-01T06:56:11.609Z,100009.09
2023-01-01T07:01:20.391Z,100025.13
2023-01-01T07:06:22.378Z,100035.97
2023-01-01T07:11:24.264Z,100029.50
2023-01-01T07:16:25.886Z,100028.72
2023-01-01T07:21:30.495Z,100051.00
2023-01-01T07:26:32.691Z,100044.47
2023-01-01T07:31:35.487Z,100051.63
2023-01-01T07:36:37.158Z,100068.22
2023-01-01T07:41:38.721Z,100080.94
2023-01-01T07:46:40.270Z,100089.88
2023-01-01T07:51:41.960Z,100100.22
2023-01-01T07:56:43.456Z,100104.59
2023-01-01T08:01:45.108Z,100122.28
2023-01-01T08:06:46.712Z,100139.97
2023-01-01T08:11:48.264Z,100139.84
2023-01-01T08:16:49.828Z,100142.94
2023-01-01T08:21:51.436Z,100141.88
2023-01-01T08:26:52.963Z,100124.72
2023-01-01T08:31:54.904Z,100125.53
2023-01-01T08:36:56.629Z,100137.88
2023-01-01T08:42:03.773Z,100149.66
2023-01-01T08:47:15.353Z,100145.53
2023-01-01T08:52:17.331Z,100158.94
2023-01-01T08:57:19.025Z,100138.06
2023-01-01T09:02:20.708Z,100145.28
2023-01-01T09:07:22.427Z,100164.41
2023-01-01T09:12:24.087Z,100178.16
2023-01-01T09:17:25.682Z,100184.34
2023-01-01T09:22:27.294Z,100203.97
2023-01-01T09:27:28.835Z,100212.91
2023-01-01T09:32:30.409Z,100210.28
2023-01-01T09:37:32.043Z,100207.97
2023-01-01T09:42:45.304Z,100205.16
2023-01-01T09:47:48.023Z,100194.91
2023-01-01T09:52:55.539Z,100188.03
2023-01-01T09:57:57.390Z,100189.69
2023-01-01T10:03:08.161Z,100189.25
2023-01-01T10:08:28.478Z,100200.47
2023-01-01T10:13:37.240Z,100206.38
2023-01-01T10:18:40.083Z,100208.09
2023-01-01T10:23:49.683Z,100197.56
2023-01-01T10:29:01.743Z,100201.09
2023-01-01T10:34:08.850Z,100222.66
2023-01-01T10:39:17.921Z,100231.03
2023-01-01T10:44:26.229Z,100207.75
2023-01-01T10:49:28.582Z,100202.72
2023-01-01T10:54:38.062Z,100198.19
2023-01-01T10:59:41.682Z,100206.31
2023-01-01T11:04:45.244Z,100201.66
2023-01-01T11:10:02.553Z,100220.31
2023-01-01T11:15:05.629Z,100216.28
2023-01-01T11:20:17.310Z,100198.50
2023-01-01T11:25:21.211Z,100218.50
2023-01-01T11:30:24.301Z,100200.75
2023-01-01T11:35:27.742Z,100189.19
2023-01-01T11:40:33.291Z,100181.88
2023-01-01T11:45:38.885Z,100172.78
2023-01-01T11:50:41.783Z,100175.28
2023-01-01T11:55:45.772Z,100168.41
2023-01-01T12:00:52.745Z,100175.25
2023-01-01T12:06:10.594Z,100172.34
2023-01-01T12:11:25.452Z,100182.66
2023-01-01T12:16:35.834Z,100183.09
2023-01-01T12:21:41.449Z,100161.84
2023-01-01T12:26:57.621Z,100161.72
2023-01-01T12:32:11.334Z,100186.84
2023-01-01T12:37:18.798Z,100175.38
2023-01-01T12:42:25.419Z,100177.03
2023-01-01T12:47:39.216Z,100180.59
2023-01-01T12:52:49.971Z,100166.75
2023-01-01T12:57:51.451Z,100164.19
2023-01-01T13:02:56.760Z,100149.78
2023-01-01T13:08:00.274Z,100151.16
2023-01-01T13:13:02.559Z,100151.31
2023-01-01T13:18:16.414Z,100148.72
2023-01-01T13:23:41.269Z,100148.47
2023-01-01T13:28:43.026Z,100159.34
2023-01-01T13:33:44.638Z,100152.16
2023-01-01T13:38:46.132Z,100167.75
2023-01-01T13:43:47.681Z,100174.84
2023-01-01T13:48:49.191Z,100182.66
2023-01-01T13:53:50.839Z,100180.88
2023-01-01T13:58:52.309Z,100185.53
2023-01-01T14:03:55.588Z,100203.81
2023-01-01T14:09:17.407Z,100211.91
2023-01-01T14:14:24.216Z,100225.53
2023-01-01T14:19:27.334Z,100238.53
2023-01-01T14:24:29.015Z,100242.97
2023-01-01T14:29:31.367Z,100253.53
2023-01-01T14:34:35.100Z,100252.78
2023-01-01T14:39:37.172Z,100268.47
2023-01-01T14:44:49.708Z,100271.25
2023-01-01T14:49:53.512Z,100281.69
2023-01-01T14:54:57.413Z,100280.66
2023-01-01T14:59:58.985Z,100283.38
2023-01-01T15:05:14.974Z,100279.56
2023-01-01T15:10:16.587Z,100282.47
2023-01-01T15:15:33.753Z,100290.91
2023-01-01T15:20:36.232Z,100290.25
2023-01-01T15:25:42.074Z,100280.84
2023-01-01T15:30:43.623Z,100275.44
2023-01-01T15:40:58.002Z,100274.56
2023-01-01T15:46:16.008Z,100279.09
2023-01-01T15:51:24.269Z,100282.97
2023-01-01T15:56:29.473Z,100296.59
2023-01-01T16:01:34.026Z,100297.19
2023-01-01T16:06:44.684Z,100301.00
2023-01-01T16:11:51.332Z,100300.22
2023-01-01T16:17:00.849Z,100302.16
2023-01-01T16:22:02.845Z,100301.78
2023-01-01T16:27:04.569Z,100295.94
2023-01-01T16:32:06.368Z,100287.06
2023-01-01T16:37:08.008Z,100302.94
2023-01-01T16:42:13.568Z,100290.47
2023-01-01T16:47:15.654Z,100286.41
2023-01-01T16:52:17.322Z,100292.16
2023-01-01T16:57:18.981Z,100293.44
2023-01-01T17:02:20.719Z,100287.75
2023-01-01T17:07:22.658Z,100297.53
2023-01-01T17:12:24.315Z,100295.41
2023-01-01T17:17:25.988Z,100304.78
2023-01-01T17:22:33.915Z,100295.88
2023-01-01T17:27:36.585Z,100282.72
2023-01-01T17:32:38.814Z,100290.63
2023-01-01T17:37:40.547Z,100292.88
2023-01-01T17:42:42.174Z,100287.38
2023-01-01T17:47:43.816Z,100279.38
2023-01-01T17:52:45.473Z,100270.25
2023-01-01T17:57:47.102Z,100289.19
2023-01-01T18:02:48.813Z,100289.25
2023-01-01T18:07:51.805Z,100305.34
2023-01-01T18:12:55.737Z,100309.41
2023-01-01T18:17:57.453Z,100301.38
2023-01-01T18:23:06.322Z,100303.53
2023-01-01T18:28:33.297Z,100310.34
2023-01-01T18:33:35.471Z,100316.44
2023-01-01T18:38:37.313Z,100309.66
2023-01-01T18:43:38.999Z,100319.47
2023-01-01T18:48:42.765Z,100317.88
2023-01-01T18:53:44.554Z,100313.72
2023-01-01T18:58:49.639Z,100312.97
2023-01-01T19:03:56.246Z,100310.44
2023-01-01T19:09:26.447Z,100294.94
2023-01-01T19:14:30.757Z,100301.94
2023-01-01T19:19:38.753Z,100302.53
2023-01-01T19:24:43.142Z,100297.69
2023-01-01T19:29:48.020Z,100304.88
2023-01-01T19:34:49.790Z,100305.63
2023-01-01T19:39:52.030Z,100300.03
2023-01-01T19:44:54.706Z,100293.84
2023-01-01T19:49:56.451Z,100300.03
2023-01-01T19:54:58.361Z,100296.03
2023-01-01T19:59:59.981Z,100297.13
2023-01-01T20:05:01.621Z,100290.53
2023-01-01T20:10:03.658Z,100288.06
2023-01-01T20:15:05.908Z,100280.97
2023-01-01T20:20:09.043Z,100278.34
2023-01-01T20:25:10.852Z,100267.13
2023-01-01T20:30:12.724Z,100273.66
2023-01-01T20:35:14.369Z,100268.88
2023-01-01T20:40:15.943Z,100260.22
2023-01-01T20:45:17.804Z,100262.88
2023-01-01T20:50:19.477Z,100258.34
2023-01-01T20:55:21.159Z,100253.22
2023-01-01T21:00:22.746Z,100253.13
2023-01-01T21:05:24.316Z,100253.34
2023-01-01T21:10:26.008Z,100249.59
2023-01-01T21:15:27.782Z,100245.47
2023-01-01T21:20:35.723Z,100226.28
2023-01-01T21:25:51.043Z,100227.13
2023-01-01T21:30:57.696Z,100226.13
2023-01-01T21:36:05.704Z,100213.72
2023-01-01T21:41:16.292Z,100210.44
2023-01-01T21:46:42.727Z,100200.38
2023-01-01T21:51:54.508Z,100193.50
2023-01-01T21:57:00.984Z,100195.69
2023-01-01T22:02:06.008Z,100196.13
2023-01-01T22:13:00.185Z,100183.41
2023-01-01T22:18:01.939Z,100181.59
2023-01-01T22:23:16.339Z,100180.69
2023-01-01T22:28:24.114Z,100185.78
2023-01-01T22:33:46.821Z,100175.47
2023-01-01T22:38:48.530Z,100160.72
2023-01-01T22:43:53.301Z,100164.25
2023-01-01T22:48:59.934Z,100158.38
2023-01-01T22:54:01.765Z,100166.81
2023-01-01T22:59:03.862Z,100152.63
2023-01-01T23:04:05.564Z,100150.81
2023-01-01T23:09:08.463Z,100141.78
2023-01-01T23:14:48.711Z,100142.34
2023-01-01T23:19:50.431Z,100139.19
2023-01-01T23:24:53.670Z,100130.44
2023-01-01T23:29:55.377Z,100133.88
2023-01-01T23:34:57.373Z,100117.41
2023-01-01T23:39:58.981Z,100112.34
2023-01-01T23:45:01.005Z,100114.38
2023-01-01T23:50:06.806Z,100106.22
2023-01-01T23:55:08.946Z,100107.41
